createdAt,value
2017-05-24T00:00:40.630Z,19.66
2017-05-24T00:01:42.377Z,19.55
2017-05-24T00:02:44.110Z,19.62
2017-05-24T00:03:48.371Z,19.64
2017-05-24T00:04:50.094Z,19.64
2017-05-24T00:05:51.791Z,19.71
2017-05-24T00:06:53.510Z,19.63
2017-05-24T00:07:55.255Z,19.55
2017-05-24T00:08:56.973Z,19.62
2017-05-24T00:09:58.612Z,19.56
2017-05-24T00:11:00.291Z,19.62
2017-05-24T00:12:01.959Z,19.48
2017-05-24T00:13:03.615Z,19.45
2017-05-24T00:14:05.415Z,19.49
2017-05-24T00:15:07.088Z,19.58
2017-05-24T00:16:08.731Z,19.45
2017-05-24T00:17:10.421Z,19.45
2017-05-24T00:18:12.115Z,19.37
2017-05-24T00:19:53.341Z,19.40
2017-05-24T00:21:34.447Z,19.29
2017-05-24T00:22:36.145Z,19.48
2017-05-24T00:23:37.777Z,19.47
2017-05-24T00:24:39.389Z,19.58
2017-05-24T00:25:41.042Z,19.40
2017-05-24T00:26:42.773Z,19.31
2017-05-24T00:27:44.453Z,19.30
2017-05-24T00:28:46.153Z,19.34
2017-05-24T00:29:47.811Z,19.30
2017-05-24T00:30:49.509Z,19.21
2017-05-24T00:31:51.193Z,19.18
2017-05-24T00:32:52.837Z,19.29
2017-05-24T00:33:54.520Z,19.37
2017-05-24T00:34:56.162Z,19.27
2017-05-24T00:36:37.328Z,19.30
2017-05-24T00:38:18.481Z,19.24
2017-05-24T00:39:20.097Z,19.22
2017-05-24T00:40:21.766Z,19.11
2017-05-24T00:41:23.496Z,19.15
2017-05-24T00:42:25.184Z,19.15
2017-05-24T00:43:26.849Z,19.11
2017-05-24T00:44:28.498Z,19.12
2017-05-24T00:45:30.193Z,19.09
2017-05-24T00:46:32.472Z,19.21
2017-05-24T00:47:34.204Z,19.12
2017-05-24T00:48:35.870Z,19.21
2017-05-24T00:49:37.528Z,19.14
2017-05-24T00:50:39.259Z,19.15
2017-05-24T00:51:40.931Z,19.02
2017-05-24T00:52:42.630Z,18.93
2017-05-24T00:53:44.319Z,19.02
2017-05-24T00:54:45.977Z,18.93
2017-05-24T00:55:47.716Z,18.80
2017-05-24T00:56:49.395Z,18.92
2017-05-24T00:57:51.080Z,18.99
2017-05-24T00:58:52.766Z,19.04
2017-05-24T00:59:54.458Z,19.14
2017-05-24T01:00:56.135Z,19.16
2017-05-24T01:01:57.758Z,19.02
2017-05-24T01:02:59.395Z,18.90
2017-05-24T01:04:01.011Z,18.78
2017-05-24T01:05:02.685Z,18.71
2017-05-24T01:06:04.370Z,18.78
2017-05-24T01:07:06.057Z,18.66
2017-05-24T01:08:07.709Z,18.74
2017-05-24T01:09:09.443Z,18.78
2017-05-24T01:10:11.105Z,18.66
2017-05-24T01:11:12.806Z,18.70
2017-05-24T01:12:14.520Z,18.66
2017-05-24T01:13:16.289Z,18.70
2017-05-24T01:14:18.032Z,18.63
2017-05-24T01:15:19.739Z,18.52
2017-05-24T01:16:21.544Z,18.62
2017-05-24T01:17:23.322Z,18.65
2017-05-24T01:18:25.053Z,18.74
2017-05-24T01:19:26.778Z,18.71
2017-05-24T01:20:28.475Z,18.75
2017-05-24T01:21:30.219Z,18.70
2017-05-24T01:22:31.904Z,18.75
2017-05-24T01:23:33.624Z,18.70
2017-05-24T01:24:35.797Z,18.73
2017-05-24T01:25:37.564Z,18.71
2017-05-24T01:26:39.297Z,18.71
2017-05-24T01:27:41.057Z,18.65
2017-05-24T01:28:42.807Z,18.71
2017-05-24T01:30:24.070Z,18.62
2017-05-24T01:31:25.762Z,18.52
2017-05-24T01:32:27.471Z,18.50
2017-05-24T01:33:29.207Z,18.47
2017-05-24T01:34:30.853Z,18.52
2017-05-24T01:35:32.520Z,18.52
2017-05-24T01:36:34.219Z,18.52
2017-05-24T01:37:36.025Z,18.43
2017-05-24T01:38:37.742Z,18.35
2017-05-24T01:39:39.486Z,18.38
2017-05-24T01:40:41.199Z,18.41
2017-05-24T01:41:42.858Z,18.47
2017-05-24T01:42:44.624Z,18.37
2017-05-24T01:43:46.347Z,18.33
2017-05-24T01:44:47.985Z,18.28
2017-05-24T01:45:49.641Z,18.38
2017-05-24T01:46:51.275Z,18.35
2017-05-24T01:47:52.998Z,18.35
2017-05-24T01:48:54.666Z,18.41
2017-05-24T01:49:56.312Z,18.43
2017-05-24T01:50:57.947Z,18.44
2017-05-24T01:51:59.645Z,18.41
2017-05-24T01:53:01.387Z,18.26
2017-05-24T01:54:03.104Z,18.40
2017-05-24T01:55:04.827Z,18.44
2017-05-24T01:56:06.531Z,18.29
2017-05-24T01:57:08.244Z,18.31
2017-05-24T01:58:10.054Z,18.33
2017-05-24T01:59:11.765Z,18.26
2017-05-24T02:00:13.419Z,18.11
2017-05-24T02:01:15.077Z,18.26
2017-05-24T02:02:16.780Z,18.23
2017-05-24T02:03:18.465Z,18.11
2017-05-24T02:04:20.165Z,18.08
2017-05-24T02:05:21.910Z,18.15
2017-05-24T02:06:23.568Z,18.16
2017-05-24T02:07:25.261Z,18.23
2017-05-24T02:08:26.897Z,18.10
2017-05-24T02:09:28.551Z,18.19
2017-05-24T02:10:30.293Z,18.20
2017-05-24T02:11:31.966Z,18.18
2017-05-24T02:12:33.680Z,18.15
2017-05-24T02:13:35.320Z,18.10
2017-05-24T02:14:37.041Z,18.22
2017-05-24T02:15:38.770Z,18.23
2017-05-24T02:16:40.402Z,18.18
2017-05-24T02:17:42.109Z,18.04
2017-05-24T02:18:43.842Z,18.04
2017-05-24T02:19:45.517Z,18.22
2017-05-24T02:20:47.138Z,18.19
2017-05-24T02:22:28.290Z,18.08
2017-05-24T02:24:10.414Z,18.01
2017-05-24T02:25:12.116Z,18.07
2017-05-24T02:26:13.765Z,18.04
2017-05-24T02:27:15.377Z,18.08
2017-05-24T02:28:17.018Z,17.94
2017-05-24T02:29:18.659Z,18.04
2017-05-24T02:30:20.423Z,18.08
2017-05-24T02:31:22.076Z,18.01
2017-05-24T02:32:23.783Z,18.05
2017-05-24T02:33:25.446Z,18.05
2017-05-24T02:34:27.112Z,18.03
2017-05-24T02:35:28.808Z,18.05
2017-05-24T02:36:30.439Z,18.04
2017-05-24T02:37:32.091Z,18.00
2017-05-24T02:38:33.745Z,17.89
2017-05-24T02:39:35.350Z,17.83
2017-05-24T02:40:37.057Z,17.90
2017-05-24T02:41:38.710Z,17.89
2017-05-24T02:42:40.346Z,17.95
2017-05-24T02:43:41.995Z,17.92
2017-05-24T02:44:43.655Z,17.94
2017-05-24T02:45:45.340Z,18.03
2017-05-24T02:46:47.038Z,17.97
2017-05-24T02:47:48.720Z,18.00
2017-05-24T02:48:50.356Z,17.95
2017-05-24T02:49:52.051Z,17.92
2017-05-24T02:50:53.773Z,17.94
2017-05-24T02:51:55.512Z,18.04
2017-05-24T02:52:57.189Z,18.19
2017-05-24T02:53:58.873Z,18.05
2017-05-24T02:55:00.571Z,18.01
2017-05-24T02:56:02.312Z,18.10
2017-05-24T02:57:03.947Z,18.03
2017-05-24T02:58:05.645Z,17.97
2017-05-24T02:59:07.305Z,18.04
2017-05-24T03:00:08.976Z,18.04
2017-05-24T03:01:10.728Z,17.95
2017-05-24T03:02:12.429Z,18.07
2017-05-24T03:03:14.177Z,17.95
2017-05-24T03:04:15.861Z,18.01
2017-05-24T03:05:17.503Z,18.08
2017-05-24T03:06:19.174Z,18.05
2017-05-24T03:07:20.900Z,17.97
2017-05-24T03:08:22.587Z,17.90
2017-05-24T03:09:24.321Z,17.94
2017-05-24T03:10:26.057Z,17.85
2017-05-24T03:11:27.781Z,17.89
2017-05-24T03:12:29.441Z,17.95
2017-05-24T03:13:31.125Z,17.90
2017-05-24T03:15:12.337Z,18.03
2017-05-24T03:16:53.541Z,18.04
2017-05-24T03:17:55.242Z,17.83
2017-05-24T03:18:56.932Z,17.92
2017-05-24T03:19:58.602Z,18.03
2017-05-24T03:21:00.412Z,17.98
2017-05-24T03:22:02.140Z,17.98
2017-05-24T03:23:03.789Z,17.87
2017-05-24T03:24:05.424Z,17.95
2017-05-24T03:25:07.186Z,17.86
2017-05-24T03:26:08.874Z,18.03
2017-05-24T03:27:10.693Z,17.89
2017-05-24T03:28:12.441Z,17.85
2017-05-24T03:29:14.140Z,18.04
2017-05-24T03:30:15.925Z,18.13
2017-05-24T03:31:17.663Z,18.03
2017-05-24T03:32:19.433Z,18.05
2017-05-24T03:33:21.174Z,18.08
2017-05-24T03:34:22.940Z,18.05
2017-05-24T03:35:24.661Z,18.13
2017-05-24T03:36:26.353Z,18.16
2017-05-24T03:37:28.144Z,18.25
2017-05-24T03:38:29.871Z,17.98
2017-05-24T03:39:31.586Z,18.04
2017-05-24T03:40:33.305Z,17.90
2017-05-24T03:41:34.992Z,17.94
2017-05-24T03:42:36.727Z,18.05
2017-05-24T03:43:38.419Z,18.31
2017-05-24T03:44:40.121Z,18.22
2017-05-24T03:45:41.854Z,18.19
2017-05-24T03:46:43.530Z,18.16
2017-05-24T03:47:45.231Z,18.03
2017-05-24T03:48:46.907Z,18.05
2017-05-24T03:49:48.597Z,18.07
2017-05-24T03:50:50.345Z,17.97
2017-05-24T03:51:52.148Z,17.92
2017-05-24T03:52:53.871Z,17.92
2017-05-24T03:53:55.560Z,17.95
2017-05-24T03:54:57.195Z,17.97
2017-05-24T03:55:58.871Z,17.94
2017-05-24T03:57:45.175Z,17.98
2017-05-24T03:58:46.829Z,18.11
2017-05-24T03:59:48.514Z,18.08
2017-05-24T04:00:50.207Z,18.05
2017-05-24T04:01:51.882Z,17.95
2017-05-24T04:02:53.595Z,17.87
2017-05-24T04:03:55.287Z,17.94
2017-05-24T04:04:56.984Z,17.92
2017-05-24T04:05:58.710Z,17.87
2017-05-24T04:07:39.920Z,17.90
2017-05-24T04:09:21.160Z,17.85
2017-05-24T04:10:22.856Z,17.90
2017-05-24T04:11:24.554Z,17.85
2017-05-24T04:12:26.236Z,17.85
2017-05-24T04:13:27.906Z,17.89
2017-05-24T04:14:29.667Z,17.92
2017-05-24T04:15:31.337Z,17.97
2017-05-24T04:16:32.996Z,17.90
2017-05-24T04:17:34.683Z,17.97
2017-05-24T04:18:36.414Z,17.89
2017-05-24T04:19:38.160Z,17.90
2017-05-24T04:20:39.872Z,17.98
2017-05-24T04:21:41.533Z,17.94
2017-05-24T04:22:43.319Z,17.95
2017-05-24T04:23:45.028Z,17.86
2017-05-24T04:24:46.762Z,17.85
2017-05-24T04:25:48.479Z,17.86
2017-05-24T04:26:50.205Z,17.80
2017-05-24T04:27:51.931Z,17.82
2017-05-24T04:28:53.698Z,17.80
2017-05-24T04:29:55.495Z,17.78
2017-05-24T04:30:57.157Z,17.86
2017-05-24T04:31:58.796Z,17.87
2017-05-24T04:33:00.496Z,17.94
2017-05-24T04:34:02.162Z,18.10
2017-05-24T04:35:03.876Z,18.03
2017-05-24T04:36:05.561Z,18.01
2017-05-24T04:37:07.262Z,17.89
2017-05-24T04:38:08.975Z,17.97
2017-05-24T04:39:10.672Z,17.94
2017-05-24T04:40:12.349Z,17.89
2017-05-24T04:41:14.075Z,17.90
2017-05-24T04:42:15.921Z,18.04
2017-05-24T04:43:17.679Z,18.08
2017-05-24T04:44:19.340Z,18.16
2017-05-24T04:45:21.052Z,18.16
2017-05-24T04:46:22.705Z,18.19
2017-05-24T04:47:24.349Z,18.10
2017-05-24T04:48:26.100Z,18.05
2017-05-24T04:49:27.799Z,18.11
2017-05-24T04:50:29.438Z,18.08
2017-05-24T04:51:31.133Z,18.15
2017-05-24T04:52:32.882Z,18.28
2017-05-24T04:53:34.599Z,18.20
2017-05-24T04:54:36.281Z,18.26
2017-05-24T04:55:38.045Z,18.28
2017-05-24T04:56:39.711Z,18.31
2017-05-24T04:57:41.432Z,18.38
2017-05-24T04:58:43.133Z,18.25
2017-05-24T05:00:24.415Z,18.34
2017-05-24T05:01:26.186Z,18.29
2017-05-24T05:02:28.003Z,18.33
2017-05-24T05:03:29.631Z,18.40
2017-05-24T05:04:31.428Z,18.43
2017-05-24T05:05:33.269Z,18.38
2017-05-24T05:06:35.044Z,18.41
2017-05-24T05:07:36.879Z,18.41
2017-05-24T05:08:38.555Z,18.37
2017-05-24T05:09:40.227Z,18.49
2017-05-24T05:10:41.908Z,18.55
2017-05-24T05:11:43.557Z,18.50
2017-05-24T05:12:45.238Z,18.47
2017-05-24T05:13:46.898Z,18.50
2017-05-24T05:14:48.560Z,18.55
2017-05-24T05:15:50.247Z,18.45
2017-05-24T05:16:51.907Z,18.62
2017-05-24T05:17:53.630Z,18.66
2017-05-24T05:18:55.333Z,18.70
2017-05-24T05:19:57.006Z,18.65
2017-05-24T05:20:58.747Z,18.63
2017-05-24T05:22:00.419Z,18.62
2017-05-24T05:23:02.088Z,18.60
2017-05-24T05:24:03.765Z,18.63
2017-05-24T05:25:05.432Z,18.66
2017-05-24T05:26:07.215Z,18.68
2017-05-24T05:27:10.958Z,18.65
2017-05-24T05:28:18.657Z,18.74
